createdAt,value
2022-11-09T00:01:03.541Z,15.77
2022-11-09T00:03:30.181Z,15.92
2022-11-09T00:05:58.038Z,15.84
2022-11-09T00:08:24.688Z,15.82
2022-11-09T00:10:51.337Z,15.82
2022-11-09T00:13:18.344Z,15.81
2022-11-09T00:15:45.629Z,15.89
2022-11-09T00:18:12.252Z,15.87
2022-11-09T00:20:43.230Z,15.79
2022-11-09T00:23:13.811Z,15.78
2022-11-09T00:25:40.396Z,15.66
2022-11-09T00:28:06.959Z,15.77
2022-11-09T00:30:33.493Z,15.71
2022-11-09T00:33:00.021Z,15.73
2022-11-09T00:35:27.343Z,15.92
2022-11-09T00:37:55.310Z,15.82
2022-11-09T00:40:21.976Z,15.83
2022-11-09T00:42:48.846Z,15.74
2022-11-09T00:45:16.404Z,15.73
2022-11-09T00:47:44.105Z,15.71
2022-11-09T00:50:11.237Z,15.84
2022-11-09T00:52:38.372Z,15.91
2022-11-09T00:55:05.470Z,15.84
2022-11-09T00:57:32.303Z,15.86
2022-11-09T00:59:59.046Z,15.85
2022-11-09T01:02:25.620Z,16.01
2022-11-09T01:04:52.604Z,15.84
2022-11-09T01:07:19.175Z,15.97
2022-11-09T01:09:47.288Z,15.91
2022-11-09T01:12:13.851Z,16.04
2022-11-09T01:14:40.383Z,16.08
2022-11-09T01:17:06.941Z,16.11
2022-11-09T01:19:33.575Z,16.03
2022-11-09T01:22:00.103Z,16.01
2022-11-09T01:24:28.268Z,16.04
2022-11-09T01:26:55.256Z,15.94
2022-11-09T01:29:21.878Z,15.78
2022-11-09T01:31:48.946Z,16.02
2022-11-09T01:34:17.466Z,15.81
2022-11-09T01:36:44.026Z,15.95
2022-11-09T01:39:10.611Z,15.86
2022-11-09T01:41:38.147Z,15.84
2022-11-09T01:44:10.046Z,15.98
2022-11-09T01:46:40.873Z,15.78
2022-11-09T01:49:24.328Z,15.87
2022-11-09T01:51:57.761Z,15.92
2022-11-09T01:54:29.776Z,15.95
2022-11-09T01:57:00.952Z,15.96
2022-11-09T01:59:31.364Z,15.80
2022-11-09T02:02:00.383Z,15.78
2022-11-09T02:04:38.630Z,15.84
2022-11-09T02:07:06.294Z,15.80
2022-11-09T02:09:52.517Z,15.81
2022-11-09T02:12:19.383Z,15.76
2022-11-09T02:14:49.645Z,15.64
2022-11-09T02:17:17.996Z,15.66
2022-11-09T02:19:45.424Z,15.55
2022-11-09T02:22:12.095Z,15.63
2022-11-09T02:24:38.871Z,15.68
2022-11-09T02:27:07.364Z,15.63
2022-11-09T02:29:40.683Z,15.55
2022-11-09T02:32:13.859Z,15.67
2022-11-09T02:34:40.558Z,15.63
2022-11-09T02:37:07.503Z,15.55
2022-11-09T02:39:34.580Z,15.41
2022-11-09T02:42:13.717Z,15.39
2022-11-09T02:44:47.684Z,15.55
2022-11-09T02:47:14.357Z,15.58
2022-11-09T02:49:41.427Z,15.41
2022-11-09T02:52:08.959Z,15.53
2022-11-09T02:54:35.970Z,15.58
2022-11-09T02:57:04.380Z,15.56
2022-11-09T02:59:32.418Z,15.45
2022-11-09T03:01:59.590Z,15.55
2022-11-09T03:04:28.964Z,15.53
2022-11-09T03:06:55.587Z,15.56
2022-11-09T03:09:22.305Z,15.36
2022-11-09T03:11:50.520Z,15.61
2022-11-09T03:14:17.809Z,15.56
2022-11-09T03:16:50.917Z,15.43
2022-11-09T03:19:18.626Z,15.44
2022-11-09T03:21:47.566Z,15.34
2022-11-09T03:24:14.161Z,15.40
2022-11-09T03:26:41.651Z,15.34
2022-11-09T03:29:09.075Z,15.11
2022-11-09T03:31:35.959Z,15.20
2022-11-09T03:34:05.664Z,15.29
2022-11-09T03:36:35.083Z,15.19
2022-11-09T03:39:01.687Z,15.19
2022-11-09T03:41:28.330Z,15.18
2022-11-09T03:43:54.926Z,15.24
2022-11-09T03:46:21.475Z,15.19
2022-11-09T03:48:48.176Z,15.19
2022-11-09T03:51:14.697Z,15.23
2022-11-09T03:53:41.259Z,15.07
2022-11-09T03:56:07.972Z,15.25
2022-11-09T03:58:34.491Z,15.11
2022-11-09T04:01:01.102Z,15.07
2022-11-09T04:03:27.658Z,15.18
2022-11-09T04:05:54.178Z,15.16
2022-11-09T04:08:20.752Z,15.25
2022-11-09T04:10:47.315Z,15.11
2022-11-09T04:13:13.795Z,15.07
2022-11-09T04:15:40.352Z,15.25
2022-11-09T04:18:06.845Z,15.14
2022-11-09T04:20:33.541Z,15.23
2022-11-09T04:23:02.906Z,15.13
2022-11-09T04:25:33.315Z,15.19
2022-11-09T04:28:01.377Z,15.10
2022-11-09T04:30:29.817Z,15.05
2022-11-09T04:32:57.426Z,15.03
2022-11-09T04:35:25.456Z,15.09
2022-11-09T04:37:58.976Z,15.10
2022-11-09T04:40:27.584Z,15.01
2022-11-09T04:42:54.583Z,15.14
2022-11-09T04:45:21.887Z,15.02
2022-11-09T04:47:48.605Z,15.20
2022-11-09T04:50:15.623Z,15.22
2022-11-09T04:52:42.187Z,15.14
2022-11-09T04:55:09.244Z,15.12
2022-11-09T04:57:35.839Z,15.11
2022-11-09T05:00:03.029Z,15.11
2022-11-09T05:02:29.581Z,15.21
2022-11-09T05:04:56.109Z,15.27
2022-11-09T05:07:22.652Z,15.11
2022-11-09T05:09:49.348Z,15.24
2022-11-09T05:12:16.182Z,15.17
2022-11-09T05:14:42.673Z,15.17
2022-11-09T05:17:09.296Z,15.22
2022-11-09T05:19:35.881Z,15.20
2022-11-09T05:22:22.436Z,15.34
2022-11-09T05:24:51.615Z,15.20
2022-11-09T05:27:18.211Z,15.16
2022-11-09T05:29:44.732Z,15.23
2022-11-09T05:32:11.344Z,15.17
2022-11-09T05:34:37.921Z,15.15
2022-11-09T05:37:04.429Z,15.30
2022-11-09T05:39:31.006Z,15.26
2022-11-09T05:41:57.678Z,15.24
2022-11-09T05:44:24.366Z,15.27
2022-11-09T05:46:50.916Z,15.18
2022-11-09T05:49:17.573Z,15.19
2022-11-09T05:51:44.109Z,15.41
2022-11-09T05:54:10.723Z,15.46
2022-11-09T05:56:37.259Z,15.37
2022-11-09T05:59:03.800Z,15.39
2022-11-09T06:01:30.311Z,15.22
2022-11-09T06:03:56.899Z,15.19
2022-11-09T06:06:23.474Z,15.19
2022-11-09T06:08:50.736Z,15.30
2022-11-09T06:11:23.581Z,15.31
2022-11-09T06:13:51.963Z,15.27
2022-11-09T06:16:18.588Z,15.31
2022-11-09T06:18:45.130Z,15.40
2022-11-09T06:21:11.948Z,15.37
2022-11-09T06:23:38.601Z,15.35
2022-11-09T06:26:07.719Z,15.36
2022-11-09T06:28:34.747Z,15.34
2022-11-09T06:31:02.960Z,15.34
2022-11-09T06:33:34.273Z,15.45
2022-11-09T06:36:01.863Z,15.41
2022-11-09T06:38:28.619Z,15.35
2022-11-09T06:40:57.518Z,15.31
2022-11-09T06:43:24.906Z,15.25
2022-11-09T06:45:52.464Z,15.11
2022-11-09T06:48:19.374Z,15.17
2022-11-09T06:50:46.163Z,15.04
2022-11-09T06:53:14.650Z,15.11
2022-11-09T06:55:47.174Z,15.20
2022-11-09T06:58:16.863Z,15.07
2022-11-09T07:00:44.614Z,15.19
2022-11-09T07:03:15.122Z,15.32
2022-11-09T07:05:42.024Z,15.03
2022-11-09T07:08:08.689Z,15.25
2022-11-09T07:10:35.362Z,15.21
2022-11-09T07:13:03.238Z,15.07
2022-11-09T07:15:30.275Z,15.20
2022-11-09T07:17:58.920Z,15.07
2022-11-09T07:20:26.307Z,15.09
2022-11-09T07:22:52.938Z,15.07
2022-11-09T07:25:19.921Z,15.16
2022-11-09T07:27:46.739Z,14.98
2022-11-09T07:30:13.893Z,15.07
2022-11-09T07:33:07.599Z,14.99
2022-11-09T07:35:27.551Z,14.92
2022-11-09T07:37:54.228Z,14.99
2022-11-09T07:40:20.816Z,14.89
2022-11-09T07:42:47.341Z,14.86
2022-11-09T07:45:14.073Z,14.91
2022-11-09T07:47:40.610Z,15.00
2022-11-09T07:50:07.543Z,14.83
2022-11-09T07:52:34.129Z,15.00
2022-11-09T07:55:00.775Z,14.98
2022-11-09T07:57:27.307Z,14.99
2022-11-09T07:59:54.041Z,15.04
2022-11-09T08:02:20.647Z,15.00
2022-11-09T08:04:47.377Z,14.74
2022-11-09T08:07:14.626Z,14.79
2022-11-09T08:09:41.328Z,14.59
2022-11-09T08:12:07.898Z,14.94
2022-11-09T08:14:34.483Z,14.82
2022-11-09T08:17:01.105Z,14.85
2022-11-09T08:19:27.728Z,14.98
2022-11-09T08:21:57.364Z,15.04
2022-11-09T08:24:24.402Z,14.98
2022-11-09T08:26:50.994Z,14.87
2022-11-09T08:29:17.536Z,14.89
2022-11-09T08:31:44.250Z,14.90
2022-11-09T08:34:13.901Z,14.87
2022-11-09T08:36:40.514Z,14.95
2022-11-09T08:39:07.127Z,15.02
2022-11-09T08:41:33.896Z,15.05
2022-11-09T08:44:00.609Z,14.87
2022-11-09T08:46:27.179Z,14.91
2022-11-09T08:48:53.783Z,14.90
2022-11-09T08:51:20.453Z,14.84
2022-11-09T08:53:47.010Z,14.88
2022-11-09T08:56:18.315Z,14.79
2022-11-09T08:58:46.047Z,14.66
2022-11-09T09:01:16.918Z,15.00
2022-11-09T09:03:44.516Z,14.88
2022-11-09T09:06:11.145Z,15.01
2022-11-09T09:08:37.984Z,14.88
2022-11-09T09:11:05.624Z,15.01
2022-11-09T09:13:32.780Z,15.27
2022-11-09T09:16:13.141Z,15.04
2022-11-09T09:18:39.820Z,15.08
2022-11-09T09:21:09.380Z,15.06
2022-11-09T09:23:35.942Z,15.16
2022-11-09T09:26:02.550Z,15.00
2022-11-09T09:28:29.312Z,15.17
2022-11-09T09:31:01.297Z,15.26
2022-11-09T09:33:28.550Z,15.18
2022-11-09T09:35:57.984Z,15.12
2022-11-09T09:38:26.111Z,15.23
2022-11-09T09:40:52.692Z,15.41
2022-11-09T09:43:30.008Z,15.45
2022-11-09T09:45:59.285Z,15.25
2022-11-09T09:48:53.522Z,15.52
2022-11-09T09:51:38.334Z,15.55
2022-11-09T09:54:19.965Z,15.63
2022-11-09T09:56:49.727Z,15.76
2022-11-09T09:59:26.942Z,15.77
2022-11-09T10:01:53.649Z,15.99
2022-11-09T10:04:23.690Z,15.93
2022-11-09T10:07:02.198Z,16.02
2022-11-09T10:09:58.171Z,15.85
2022-11-09T10:13:09.782Z,16.05
2022-11-09T10:15:54.198Z,15.88
2022-11-09T10:18:29.571Z,15.96
2022-11-09T10:21:19.978Z,15.98
2022-11-09T10:24:11.722Z,16.51
2022-11-09T10:26:47.175Z,16.45
2022-11-09T10:29:35.655Z,16.32
2022-11-09T10:32:23.295Z,16.40
2022-11-09T10:34:56.508Z,16.53
2022-11-09T10:37:27.551Z,16.60
2022-11-09T10:40:24.256Z,16.48
2022-11-09T10:43:23.734Z,16.39
2022-11-09T10:46:09.196Z,16.56
2022-11-09T10:48:55.623Z,16.49
2022-11-09T10:51:42.768Z,16.43
2022-11-09T10:54:32.417Z,16.49
2022-11-09T10:57:18.870Z,16.18
2022-11-09T11:00:05.446Z,16.04
2022-11-09T11:02:52.066Z,16.29
2022-11-09T11:05:38.920Z,16.10
2022-11-09T11:08:29.776Z,15.94
2022-11-09T11:11:33.669Z,15.75
2022-11-09T11:14:33.268Z,15.75
2022-11-09T11:17:26.376Z,15.95
2022-11-09T11:20:30.701Z,16.08
2022-11-09T11:23:22.442Z,16.09
2022-11-09T11:26:23.160Z,16.21
2022-11-09T11:29:48.722Z,16.47
2022-11-09T11:32:34.096Z,16.80
2022-11-09T11:35:38.647Z,17.27
2022-11-09T11:38:37.969Z,17.20
2022-11-09T11:42:01.534Z,17.40
2022-11-09T11:45:12.761Z,17.43
2022-11-09T11:48:15.663Z,17.12
2022-11-09T11:51:32.102Z,17.30
2022-11-09T11:54:37.291Z,17.22
2022-11-09T11:57:41.420Z,16.83
2022-11-09T12:00:26.845Z,16.83
2022-11-09T12:03:31.461Z,17.02
2022-11-09T12:06:22.084Z,17.13
2022-11-09T12:09:16.360Z,17.17
2022-11-09T12:12:34.562Z,17.20
2022-11-09T12:16:03.165Z,17.37
2022-11-09T12:19:00.208Z,17.24
2022-11-09T12:21:55.507Z,17.19
2022-11-09T12:24:54.228Z,17.51
2022-11-09T12:27:57.495Z,17.47
2022-11-09T12:31:14.199Z,17.49
2022-11-09T12:34:18.143Z,17.73
2022-11-09T12:37:09.854Z,17.61
2022-11-09T12:40:00.238Z,17.45
2022-11-09T12:42:56.648Z,17.36
2022-11-09T12:45:43.661Z,17.51
2022-11-09T12:48:31.693Z,17.76
2022-11-09T12:51:18.706Z,17.68
2022-11-09T12:54:11.218Z,17.70
2022-11-09T12:57:03.806Z,17.65
2022-11-09T12:59:54.614Z,17.77
2022-11-09T13:02:54.827Z,17.26
2022-11-09T13:05:40.333Z,17.57
2022-11-09T13:08:31.576Z,17.48
2022-11-09T13:11:39.865Z,17.24
2022-11-09T13:14:31.602Z,17.30
2022-11-09T13:17:25.861Z,17.28
2022-11-09T13:26:46.786Z,17.38
2022-11-09T13:29:40.946Z,17.02
2022-11-09T13:32:33.223Z,17.16
2022-11-09T13:35:40.206Z,16.85
2022-11-09T13:38:28.547Z,16.69
2022-11-09T13:41:32.221Z,16.57
2022-11-09T13:44:20.530Z,16.53
2022-11-09T13:47:05.660Z,16.67
2022-11-09T13:49:52.027Z,16.69
2022-11-09T13:52:43.899Z,16.68
2022-11-09T13:55:40.400Z,16.73
2022-11-09T13:58:29.846Z,16.52
2022-11-09T14:01:27.048Z,16.60
2022-11-09T14:04:24.587Z,16.63
2022-11-09T14:07:24.014Z,16.56
2022-11-09T14:10:42.300Z,16.61
2022-11-09T14:14:01.932Z,16.75
2022-11-09T14:17:16.781Z,16.47
2022-11-09T14:20:12.200Z,16.44
2022-11-09T14:22:57.517Z,16.41
2022-11-09T14:25:43.070Z,16.60
2022-11-09T14:28:32.711Z,16.30
2022-11-09T14:31:27.477Z,16.08
2022-11-09T14:34:16.569Z,16.43
2022-11-09T14:37:05.821Z,16.51
2022-11-09T14:39:52.457Z,16.37
2022-11-09T14:42:40.834Z,16.18
2022-11-09T14:45:30.283Z,16.00
2022-11-09T14:48:20.793Z,16.03
2022-11-09T14:51:12.102Z,15.96
2022-11-09T14:53:58.679Z,15.98
2022-11-09T14:56:44.839Z,15.94
2022-11-09T14:59:36.049Z,15.82
2022-11-09T15:02:23.122Z,16.00
2022-11-09T15:05:29.906Z,16.03
2022-11-09T15:08:22.737Z,15.86
2022-11-09T15:11:08.557Z,15.90
2022-11-09T15:13:54.037Z,15.73
2022-11-09T15:16:40.533Z,15.86
2022-11-09T15:19:30.588Z,15.76
2022-11-09T15:22:46.723Z,15.77
2022-11-09T15:25:41.161Z,15.87
2022-11-09T15:28:29.545Z,15.82
2022-11-09T15:31:18.715Z,15.79
2022-11-09T15:34:22.017Z,15.83
2022-11-09T15:37:29.515Z,15.97
2022-11-09T15:40:17.692Z,15.70
2022-11-09T15:43:02.665Z,15.60
2022-11-09T15:45:47.828Z,15.59
2022-11-09T15:48:33.712Z,15.59
2022-11-09T15:51:19.622Z,15.43
2022-11-09T15:54:05.096Z,15.27
2022-11-09T15:56:51.304Z,15.31
2022-11-09T15:59:36.618Z,15.11
2022-11-09T16:02:22.009Z,15.25
2022-11-09T16:05:07.879Z,15.22
2022-11-09T16:07:54.915Z,15.09
2022-11-09T16:10:41.277Z,14.98
2022-11-09T16:13:26.314Z,15.00
2022-11-09T16:16:14.136Z,14.95
2022-11-09T16:18:59.421Z,14.98
2022-11-09T16:21:44.638Z,15.03
2022-11-09T16:24:30.077Z,14.99
2022-11-09T16:27:35.378Z,14.88
2022-11-09T16:30:20.555Z,14.95
2022-11-09T16:33:05.577Z,14.73
2022-11-09T16:35:50.856Z,14.77
2022-11-09T16:38:41.958Z,14.83
2022-11-09T16:41:27.456Z,14.79
2022-11-09T16:44:14.332Z,14.99
2022-11-09T16:47:03.076Z,14.75
2022-11-09T16:49:48.366Z,14.63
2022-11-09T16:52:33.578Z,14.68
2022-11-09T16:55:18.766Z,14.61
2022-11-09T16:58:04.133Z,14.57
2022-11-09T17:03:57.537Z,14.54
2022-11-09T17:06:42.623Z,14.41
2022-11-09T17:09:27.887Z,14.28
2022-11-09T17:12:14.253Z,14.33
2022-11-09T17:14:59.355Z,14.34
2022-11-09T17:17:44.670Z,14.44
2022-11-09T17:20:29.915Z,14.41
2022-11-09T17:23:18.430Z,14.65
2022-11-09T17:26:06.522Z,14.33
2022-11-09T17:28:51.832Z,14.31
2022-11-09T17:31:38.083Z,14.41
2022-11-09T17:34:23.489Z,14.46
2022-11-09T17:37:09.024Z,14.53
2022-11-09T17:39:54.256Z,14.34
2022-11-09T17:42:39.980Z,14.16
2022-11-09T17:45:25.919Z,14.23
2022-11-09T17:48:11.139Z,14.25
2022-11-09T17:50:57.616Z,14.22
2022-11-09T17:53:43.513Z,14.03
2022-11-09T17:56:29.003Z,14.16
2022-11-09T17:59:14.553Z,14.10
2022-11-09T18:01:59.741Z,14.02
2022-11-09T18:04:44.909Z,13.97
2022-11-09T18:07:31.053Z,14.04
2022-11-09T18:10:16.208Z,13.91
2022-11-09T18:13:01.780Z,13.93
2022-11-09T18:15:46.828Z,14.02
2022-11-09T18:18:32.305Z,13.67
2022-11-09T18:21:19.568Z,13.76
2022-11-09T18:24:05.356Z,13.59
2022-11-09T18:26:50.474Z,13.73
2022-11-09T18:29:36.055Z,13.59
2022-11-09T18:32:21.262Z,13.40
2022-11-09T18:35:07.608Z,13.68
2022-11-09T18:37:52.914Z,13.65
2022-11-09T18:40:38.236Z,13.86
2022-11-09T18:43:23.676Z,13.59
2022-11-09T18:46:11.841Z,13.62
2022-11-09T18:48:56.930Z,13.75
2022-11-09T18:51:43.968Z,13.51
2022-11-09T18:54:29.626Z,13.70
2022-11-09T18:57:19.668Z,13.77
2022-11-09T19:00:06.312Z,13.71
2022-11-09T19:02:51.592Z,13.59
2022-11-09T19:05:39.946Z,13.62
2022-11-09T19:08:44.047Z,13.68
2022-11-09T19:11:30.157Z,13.78
2022-11-09T19:14:15.591Z,13.60
2022-11-09T19:17:01.021Z,13.50
2022-11-09T19:19:46.257Z,13.40
2022-11-09T19:22:31.928Z,13.47
2022-11-09T19:25:17.039Z,13.48
2022-11-09T19:28:02.306Z,13.16
2022-11-09T19:30:47.693Z,13.34
2022-11-09T19:33:32.823Z,13.17
2022-11-09T19:36:34.608Z,13.39
2022-11-09T19:39:20.175Z,13.26
2022-11-09T19:42:05.970Z,13.26
2022-11-09T19:44:56.263Z,13.25
2022-11-09T19:47:42.306Z,13.26
2022-11-09T19:50:27.430Z,13.51
2022-11-09T19:53:12.779Z,13.31
2022-11-09T19:56:04.376Z,13.44
2022-11-09T19:58:55.406Z,13.48
2022-11-09T20:01:40.663Z,13.57
2022-11-09T20:04:25.885Z,13.37
2022-11-09T20:07:11.357Z,13.51
2022-11-09T20:09:56.589Z,13.42
2022-11-09T20:12:50.682Z,13.49
2022-11-09T20:15:36.428Z,13.31
2022-11-09T20:18:23.753Z,13.41
2022-11-09T20:21:09.051Z,13.61
2022-11-09T20:23:54.577Z,13.58
2022-11-09T20:26:40.760Z,13.45
2022-11-09T20:29:26.229Z,13.36
2022-11-09T20:32:12.423Z,13.47
2022-11-09T20:34:58.196Z,13.20
2022-11-09T20:37:43.349Z,13.33
2022-11-09T20:40:29.012Z,13.38
2022-11-09T20:43:14.174Z,13.24
2022-11-09T20:46:07.161Z,13.39
2022-11-09T20:48:54.581Z,13.27
2022-11-09T20:51:40.766Z,13.21
2022-11-09T20:54:26.495Z,13.32
2022-11-09T20:57:12.034Z,13.17
2022-11-09T20:59:56.915Z,13.22
2022-11-09T21:02:43.129Z,13.39
2022-11-09T21:05:28.156Z,13.43
2022-11-09T21:08:13.541Z,13.42
2022-11-09T21:11:03.889Z,13.25
2022-11-09T21:13:55.988Z,13.15
2022-11-09T21:16:40.950Z,13.19
2022-11-09T21:19:26.699Z,13.25
2022-11-09T21:22:11.849Z,13.16
2022-11-09T21:25:15.701Z,12.96
2022-11-09T21:28:19.872Z,13.16
2022-11-09T21:31:05.480Z,13.04
2022-11-09T21:33:53.106Z,12.93
2022-11-09T21:36:38.115Z,13.04
2022-11-09T21:39:23.816Z,12.90
2022-11-09T21:42:13.671Z,13.08
2022-11-09T21:44:59.690Z,12.92
2022-11-09T21:47:44.679Z,12.83
2022-11-09T21:50:30.414Z,12.80
2022-11-09T21:53:26.980Z,12.88
2022-11-09T21:56:17.337Z,12.85
2022-11-09T21:59:11.114Z,12.88
2022-11-09T22:02:02.612Z,12.76
2022-11-09T22:04:58.226Z,12.89
2022-11-09T22:07:44.329Z,12.48
2022-11-09T22:10:29.503Z,12.78
2022-11-09T22:13:33.893Z,12.92
2022-11-09T22:16:20.714Z,12.71
2022-11-09T22:19:24.497Z,12.66
2022-11-09T22:22:09.851Z,12.75
2022-11-09T22:24:55.045Z,12.61
2022-11-09T22:27:40.340Z,12.64
2022-11-09T22:30:26.302Z,12.72
2022-11-09T22:33:11.359Z,12.70
2022-11-09T22:35:58.262Z,12.52
2022-11-09T22:38:43.894Z,12.48
2022-11-09T22:41:28.951Z,12.48
2022-11-09T22:44:14.541Z,12.45
2022-11-09T22:46:59.871Z,12.42
2022-11-09T22:49:45.207Z,12.32
2022-11-09T22:52:30.491Z,12.40
2022-11-09T22:55:15.748Z,12.45
2022-11-09T22:58:01.269Z,12.63
2022-11-09T23:00:46.565Z,12.57
2022-11-09T23:03:31.856Z,12.53
2022-11-09T23:06:20.033Z,12.61
2022-11-09T23:09:05.117Z,12.38
2022-11-09T23:11:50.524Z,12.35
2022-11-09T23:14:54.276Z,12.42
2022-11-09T23:17:57.979Z,12.35
2022-11-09T23:20:43.554Z,12.37
2022-11-09T23:23:28.529Z,12.54
2022-11-09T23:26:13.823Z,12.31
2022-11-09T23:28:59.648Z,12.45
2022-11-09T23:31:44.907Z,12.39
2022-11-09T23:34:30.182Z,12.35
2022-11-09T23:37:15.466Z,12.26
2022-11-09T23:40:00.968Z,12.25
2022-11-09T23:42:45.998Z,12.09
2022-11-09T23:45:33.815Z,12.14
2022-11-09T23:48:19.419Z,12.09
2022-11-09T23:51:05.873Z,12.14
2022-11-09T23:53:50.908Z,12.03
2022-11-09T23:56:36.322Z,12.08
2022-11-09T23:59:22.905Z,11.97
